Marion, Maryland
Current Conditions -  °F | °C
As of 11:54 AM on Friday 24 Oct 2014 (Local Time) from KWAL Reporting Station
Clear Clear  
Wind Chill: 64°   Ceiling: Unl
Heat Index: 64°   Visibility: 10mi
Dew Point: 47°   Wind: 15mph
Humidity: 54%   Direction: 360°N
Pressure: 29.92"   Gusts: 22mph
Location:  38.0161°N, 75.7294°W
Report Text: KWAL 241554Z 36013G19KT 10SM CLR 18/08 A2992 RMK AO2 SLP128 T01780083
Loading
Personal Weather Stations






























Interactive Weather Map
Tropical Storm Tracking
New forecast layout! Learn more

10-Day Weather Forecast

Advertisements
Track Severe Weather on mobile